createdAt,value
2023-05-13T00:01:49.288Z,19.67
2023-05-13T00:04:18.533Z,22.38
2023-05-13T00:06:46.738Z,30.83
2023-05-13T00:09:15.202Z,19.88
2023-05-13T00:11:43.495Z,25.45
2023-05-13T00:14:11.845Z,22.60
2023-05-13T00:16:40.022Z,23.75
2023-05-13T00:22:41.143Z,30.33
2023-05-13T00:25:09.725Z,23.58
2023-05-13T00:27:38.147Z,20.83
2023-05-13T00:30:07.075Z,22.38
2023-05-13T00:32:35.343Z,23.73
2023-05-13T00:35:03.399Z,21.10
2023-05-13T00:37:32.022Z,27.73
2023-05-13T00:40:00.393Z,24.98
2023-05-13T00:42:28.912Z,22.42
2023-05-13T00:44:57.202Z,20.67
2023-05-13T00:47:25.701Z,26.20
2023-05-13T00:49:54.012Z,26.48
2023-05-13T00:52:22.437Z,43.33
2023-05-13T00:54:50.938Z,24.85
2023-05-13T00:57:19.085Z,17.15
2023-05-13T00:59:47.669Z,18.02
2023-05-13T01:02:33.022Z,26.92
2023-05-13T01:05:04.518Z,20.10
2023-05-13T01:07:50.585Z,19.23
2023-05-13T01:10:35.496Z,13.90
2023-05-13T01:13:11.226Z,20.67
2023-05-13T01:15:50.805Z,12.48
2023-05-13T01:18:28.934Z,15.52
2023-05-13T01:20:59.090Z,13.18
2023-05-13T01:23:27.308Z,14.20
2023-05-13T01:25:55.822Z,13.43
2023-05-13T01:28:24.812Z,10.40
2023-05-13T01:30:55.471Z,12.15
2023-05-13T01:33:25.190Z,11.20
2023-05-13T01:35:53.767Z,17.65
2023-05-13T01:38:23.965Z,17.15
2023-05-13T01:40:56.878Z,11.98
2023-05-13T01:43:26.003Z,12.25
2023-05-13T01:45:54.368Z,11.65
2023-05-13T01:48:23.653Z,15.88
2023-05-13T01:50:52.706Z,15.98
2023-05-13T01:53:21.011Z,11.70
2023-05-13T01:55:52.425Z,14.00
2023-05-13T01:58:22.265Z,13.23
2023-05-13T02:00:50.694Z,12.02
2023-05-13T02:03:19.942Z,14.30
2023-05-13T02:05:48.505Z,15.18
2023-05-13T02:08:16.799Z,20.38
2023-05-13T02:10:45.173Z,15.82
2023-05-13T02:13:13.525Z,16.98
2023-05-13T02:15:41.962Z,22.67
2023-05-13T02:18:10.612Z,14.98
2023-05-13T02:20:38.916Z,16.63
2023-05-13T02:23:07.247Z,20.55
2023-05-13T02:25:36.507Z,23.38
2023-05-13T02:28:04.951Z,19.45
2023-05-13T02:30:33.269Z,21.85
2023-05-13T02:33:02.275Z,16.80
2023-05-13T02:35:30.904Z,20.80
2023-05-13T02:38:02.220Z,27.00
2023-05-13T02:40:30.827Z,17.58
2023-05-13T02:42:59.551Z,25.80
2023-05-13T02:45:42.273Z,18.40
2023-05-13T02:48:12.132Z,22.15
2023-05-13T02:50:40.533Z,21.50
2023-05-13T02:53:10.218Z,30.65
2023-05-13T02:55:43.212Z,21.63
2023-05-13T02:58:11.628Z,20.98
2023-05-13T03:00:40.548Z,24.45
2023-05-13T03:03:08.877Z,15.40
2023-05-13T03:05:37.263Z,15.18
2023-05-13T03:08:05.837Z,28.55
2023-05-13T03:10:34.029Z,27.88
2023-05-13T03:13:02.610Z,26.90
2023-05-13T03:15:30.744Z,29.33
2023-05-13T03:17:58.894Z,26.70
2023-05-13T03:20:27.273Z,21.13
2023-05-13T03:22:55.635Z,12.75
2023-05-13T03:25:23.812Z,15.60
2023-05-13T03:27:57.236Z,13.80
2023-05-13T03:30:28.195Z,17.02
2023-05-13T03:33:05.348Z,21.83
2023-05-13T03:35:33.872Z,15.18
2023-05-13T03:38:01.969Z,24.55
2023-05-13T03:40:30.553Z,9.43
2023-05-13T03:42:59.007Z,13.40
2023-05-13T03:45:29.029Z,14.55
2023-05-13T03:48:01.902Z,12.38
2023-05-13T03:50:30.571Z,12.10
2023-05-13T03:52:58.844Z,10.70
2023-05-13T03:55:27.238Z,16.23
2023-05-13T03:57:55.977Z,20.80
2023-05-13T04:00:24.379Z,17.23
2023-05-13T04:02:52.837Z,10.68
2023-05-13T04:05:22.165Z,11.15
2023-05-13T04:07:50.385Z,9.95
2023-05-13T04:10:18.758Z,15.85
2023-05-13T04:12:47.133Z,10.20
2023-05-13T04:15:15.473Z,19.60
2023-05-13T04:17:43.845Z,16.38
2023-05-13T04:20:12.276Z,14.15
2023-05-13T04:22:40.469Z,14.27
2023-05-13T04:25:09.002Z,19.00
2023-05-13T04:27:37.430Z,12.73
2023-05-13T04:30:12.313Z,17.55
2023-05-13T04:32:42.493Z,19.15
2023-05-13T04:35:12.058Z,22.42
2023-05-13T04:37:41.495Z,14.95
2023-05-13T04:40:13.885Z,25.08
2023-05-13T04:42:42.276Z,104.20
2023-05-13T04:45:11.242Z,147.23
2023-05-13T04:47:39.488Z,182.23
2023-05-13T04:50:08.003Z,145.02
2023-05-13T04:52:36.932Z,92.90
2023-05-13T04:55:06.021Z,63.17
2023-05-13T04:57:34.617Z,44.83
2023-05-13T05:00:04.168Z,24.77
2023-05-13T05:02:35.485Z,17.35
2023-05-13T05:05:04.239Z,18.42
2023-05-13T05:07:32.484Z,25.23
2023-05-13T05:10:05.087Z,18.52
2023-05-13T05:12:33.566Z,11.73
2023-05-13T05:15:01.762Z,22.27
2023-05-13T05:17:30.568Z,19.05
2023-05-13T05:19:59.173Z,16.70
2023-05-13T05:22:27.835Z,13.43
2023-05-13T05:24:56.087Z,15.07
2023-05-13T05:27:25.986Z,17.00
2023-05-13T05:29:54.262Z,22.35
2023-05-13T05:32:23.712Z,14.32
2023-05-13T05:34:51.959Z,9.80
2023-05-13T05:37:20.269Z,12.30
2023-05-13T05:39:48.453Z,22.05
2023-05-13T05:42:16.756Z,13.82
2023-05-13T05:44:45.131Z,19.77
2023-05-13T05:48:34.955Z,15.85
2023-05-13T05:51:04.721Z,15.40
2023-05-13T05:53:37.150Z,24.53
2023-05-13T05:56:06.611Z,19.48
2023-05-13T05:58:35.056Z,17.15
2023-05-13T06:01:03.311Z,11.00
2023-05-13T06:03:31.824Z,13.75
2023-05-13T06:06:00.169Z,18.50
2023-05-13T06:08:28.474Z,14.90
2023-05-13T06:10:58.266Z,18.50
2023-05-13T06:13:27.131Z,19.60
2023-05-13T06:15:56.357Z,11.88
2023-05-13T06:18:24.706Z,19.48
2023-05-13T06:20:52.856Z,18.02
2023-05-13T06:23:21.136Z,18.65
2023-05-13T06:25:49.231Z,20.88
2023-05-13T06:28:17.538Z,22.48
2023-05-13T06:30:46.335Z,17.63
2023-05-13T06:33:14.432Z,14.88
2023-05-13T06:35:42.704Z,19.65
2023-05-13T06:38:18.406Z,13.45
2023-05-13T06:40:48.849Z,15.55
2023-05-13T06:43:18.481Z,19.42
2023-05-13T06:45:49.377Z,22.63
2023-05-13T06:48:17.918Z,29.88
2023-05-13T06:50:46.172Z,29.83
2023-05-13T06:53:14.365Z,21.73
2023-05-13T06:55:42.669Z,16.52
2023-05-13T06:58:11.384Z,20.40
2023-05-13T07:00:41.658Z,21.73
2023-05-13T07:03:09.982Z,24.92
2023-05-13T07:05:38.135Z,33.60
2023-05-13T07:08:06.486Z,48.78
2023-05-13T07:10:35.275Z,29.10
2023-05-13T07:13:03.992Z,40.95
2023-05-13T07:15:32.077Z,31.75
2023-05-13T07:18:00.278Z,20.88
2023-05-13T07:20:28.701Z,29.45
2023-05-13T07:22:56.837Z,36.90
2023-05-13T07:25:25.194Z,18.45
2023-05-13T07:27:53.420Z,27.42
2023-05-13T07:30:21.849Z,22.58
2023-05-13T07:32:51.421Z,32.17
2023-05-13T07:35:21.866Z,33.13
2023-05-13T07:37:50.248Z,25.55
2023-05-13T07:40:18.642Z,33.20
2023-05-13T07:42:46.865Z,30.55
2023-05-13T07:45:15.101Z,28.90
2023-05-13T07:47:44.660Z,32.35
2023-05-13T07:50:13.222Z,34.08
2023-05-13T07:52:41.396Z,40.75
2023-05-13T07:55:09.935Z,37.65
2023-05-13T07:57:38.258Z,34.72
2023-05-13T08:00:07.060Z,39.28
2023-05-13T08:02:42.200Z,26.90
2023-05-13T08:05:11.292Z,31.48
2023-05-13T08:07:39.482Z,35.47
2023-05-13T08:10:08.373Z,28.48
2023-05-13T08:12:36.700Z,36.63
2023-05-13T08:15:05.298Z,34.50
2023-05-13T08:17:34.045Z,34.35
2023-05-13T08:20:03.744Z,36.53
2023-05-13T08:22:32.452Z,37.70
2023-05-13T08:25:00.529Z,33.03
2023-05-13T08:27:28.753Z,29.98
2023-05-13T08:29:56.923Z,34.20
2023-05-13T08:32:25.022Z,39.40
2023-05-13T08:34:53.292Z,25.02
2023-05-13T08:37:21.665Z,35.80
2023-05-13T08:39:49.845Z,22.85
2023-05-13T08:42:21.458Z,24.85
2023-05-13T08:44:50.946Z,21.60
2023-05-13T08:47:35.502Z,30.02
2023-05-13T08:50:06.222Z,25.83
2023-05-13T08:52:34.489Z,19.15
2023-05-13T08:55:03.073Z,34.10
2023-05-13T08:57:31.436Z,22.63
2023-05-13T08:59:59.618Z,22.30
2023-05-13T09:02:28.383Z,20.92
2023-05-13T09:04:58.194Z,17.88
2023-05-13T09:07:26.653Z,14.35
2023-05-13T09:09:54.980Z,19.67
2023-05-13T09:12:46.111Z,15.23
2023-05-13T09:15:16.966Z,21.23
2023-05-13T09:17:48.286Z,21.63
2023-05-13T09:20:17.820Z,14.00
2023-05-13T09:22:57.551Z,19.00
2023-05-13T09:25:26.644Z,14.73
2023-05-13T09:27:56.985Z,15.25
2023-05-13T09:30:39.135Z,14.82
2023-05-13T09:33:08.881Z,20.55
2023-05-13T09:35:45.422Z,18.75
2023-05-13T15:42:54.355Z,23.13
2023-05-13T15:45:22.752Z,26.63
2023-05-13T15:47:51.376Z,15.98
2023-05-13T15:50:19.983Z,20.67
2023-05-13T15:52:48.421Z,30.13
2023-05-13T15:55:19.499Z,21.95
2023-05-13T15:57:50.055Z,19.90
2023-05-13T16:00:19.216Z,31.55
2023-05-13T16:02:47.851Z,17.80
2023-05-13T16:05:15.937Z,16.17
2023-05-13T16:07:44.940Z,17.75
2023-05-13T16:10:13.322Z,22.05
2023-05-13T16:12:42.188Z,26.27
2023-05-13T16:15:11.338Z,23.85
2023-05-13T16:17:39.521Z,36.58
2023-05-13T16:28:11.983Z,16.00
2023-05-13T16:30:40.327Z,23.13
2023-05-13T16:33:18.871Z,41.92
2023-05-13T16:35:48.932Z,40.78
2023-05-13T16:38:17.311Z,24.45
2023-05-13T16:40:45.816Z,28.58
2023-05-13T16:43:13.887Z,19.80
2023-05-13T16:45:42.206Z,17.60
2023-05-13T16:48:10.539Z,32.75
2023-05-13T16:50:38.920Z,44.50
2023-05-13T16:53:07.196Z,27.15
2023-05-13T16:55:35.820Z,23.85
2023-05-13T16:58:03.976Z,30.40
2023-05-13T17:00:32.305Z,51.05
2023-05-13T17:03:00.519Z,46.72
2023-05-13T17:05:28.944Z,20.60
2023-05-13T17:07:57.162Z,41.67
2023-05-13T17:10:25.636Z,29.38
2023-05-13T17:12:55.077Z,42.00
2023-05-13T17:15:24.353Z,49.65
2023-05-13T17:17:52.588Z,38.63
2023-05-13T17:20:22.212Z,43.40
2023-05-13T17:22:50.660Z,45.75
2023-05-13T17:25:18.904Z,37.50
2023-05-13T17:27:47.164Z,30.30
2023-05-13T17:30:16.055Z,33.00
2023-05-13T17:32:44.307Z,37.40
2023-05-13T17:35:12.602Z,39.45
2023-05-13T17:37:41.036Z,37.55
2023-05-13T17:40:09.827Z,39.17
2023-05-13T17:42:38.181Z,84.43
2023-05-13T17:45:07.074Z,54.22
2023-05-13T17:47:35.448Z,103.50
2023-05-13T17:50:03.866Z,185.73
2023-05-13T17:52:32.203Z,143.27
2023-05-13T17:55:00.420Z,97.80
2023-05-13T17:57:28.966Z,140.60
2023-05-13T17:59:57.040Z,105.07
2023-05-13T18:02:25.510Z,62.88
2023-05-13T18:04:53.694Z,129.60
2023-05-13T18:07:22.030Z,130.45
2023-05-13T18:09:50.232Z,151.13
2023-05-13T18:12:18.603Z,111.55
2023-05-13T18:14:46.680Z,74.50
2023-05-13T18:17:14.964Z,87.95
2023-05-13T18:19:43.169Z,125.35
2023-05-13T18:22:11.467Z,153.93
2023-05-13T18:24:39.940Z,118.13
2023-05-13T18:27:08.933Z,72.65
2023-05-13T18:29:37.457Z,73.90
2023-05-13T18:32:06.187Z,58.80
2023-05-13T18:34:34.576Z,159.98
2023-05-13T18:37:02.921Z,152.32
2023-05-13T18:39:31.155Z,189.90
2023-05-13T18:41:59.460Z,174.00
2023-05-13T18:44:27.783Z,125.25
2023-05-13T18:46:55.993Z,146.30
2023-05-13T18:49:26.116Z,191.90
2023-05-13T18:51:54.814Z,156.68
2023-05-13T18:54:23.137Z,127.15
2023-05-13T18:56:51.857Z,97.15
2023-05-13T18:59:20.196Z,81.22
2023-05-13T19:01:48.863Z,106.30
2023-05-13T19:04:17.554Z,120.85
2023-05-13T19:06:46.179Z,95.60
2023-05-13T19:09:14.412Z,124.38
2023-05-13T19:11:42.798Z,131.23
2023-05-13T19:14:10.915Z,118.35
2023-05-13T19:16:39.821Z,132.40
2023-05-13T19:19:08.167Z,108.18
2023-05-13T19:21:36.608Z,149.65
2023-05-13T19:24:04.937Z,134.55
2023-05-13T19:26:33.724Z,172.15
2023-05-13T19:29:02.439Z,181.10
2023-05-13T19:31:30.826Z,153.50
2023-05-13T19:33:59.281Z,134.70
2023-05-13T19:36:27.747Z,159.55
2023-05-13T19:38:56.470Z,80.80
2023-05-13T19:41:24.562Z,43.25
2023-05-13T19:43:52.925Z,45.30
2023-05-13T19:46:21.415Z,28.02
2023-05-13T19:48:50.013Z,29.58
2023-05-13T19:51:18.153Z,31.15
2023-05-13T19:53:46.588Z,33.63
2023-05-13T19:56:14.839Z,29.58
2023-05-13T19:58:43.197Z,37.42
2023-05-13T20:01:11.474Z,50.65
2023-05-13T20:03:39.799Z,28.08
2023-05-13T20:06:08.532Z,22.50
2023-05-13T20:08:36.920Z,37.53
2023-05-13T20:11:05.196Z,15.77
2023-05-13T20:13:33.505Z,26.42
2023-05-13T20:16:01.654Z,33.70
2023-05-13T20:18:30.319Z,48.63
2023-05-13T20:20:58.665Z,47.50
2023-05-13T20:23:26.901Z,47.00
2023-05-13T20:25:55.309Z,71.28
2023-05-13T20:28:23.928Z,60.92
2023-05-13T20:30:58.690Z,55.33
2023-05-13T20:33:28.494Z,106.95
2023-05-13T20:35:58.422Z,102.82
2023-05-13T20:38:26.786Z,138.57
2023-05-13T20:40:57.771Z,137.07
2023-05-13T20:43:27.492Z,141.63
2023-05-13T20:45:55.856Z,124.88
2023-05-13T20:48:24.113Z,123.35
2023-05-13T20:50:59.689Z,162.80
2023-05-13T20:53:28.105Z,172.93
2023-05-13T20:55:56.353Z,151.57
2023-05-13T20:58:24.799Z,150.20
2023-05-13T21:00:53.731Z,135.63
2023-05-13T21:03:22.294Z,130.05
2023-05-13T21:05:52.789Z,128.43
2023-05-13T21:08:21.143Z,123.72
2023-05-13T21:10:49.398Z,129.60
2023-05-13T21:13:17.873Z,186.95
2023-05-13T21:15:46.019Z,139.50
2023-05-13T21:18:14.483Z,112.25
2023-05-13T21:20:44.788Z,90.60
2023-05-13T21:23:13.249Z,108.65
2023-05-13T21:25:41.713Z,114.65
2023-05-13T21:28:09.904Z,118.75
2023-05-13T21:30:38.331Z,114.05
2023-05-13T21:33:06.663Z,112.57
2023-05-13T21:35:35.334Z,110.35
2023-05-13T21:38:11.548Z,104.38
2023-05-13T21:40:40.702Z,94.75
2023-05-13T21:43:09.964Z,69.95
2023-05-13T21:45:39.549Z,77.18
2023-05-13T21:48:08.153Z,76.32
2023-05-13T21:50:36.651Z,75.55
2023-05-13T21:53:04.916Z,72.03
2023-05-13T21:55:33.159Z,74.00
2023-05-13T21:58:02.515Z,68.97
2023-05-13T22:00:31.055Z,73.90
2023-05-13T22:02:59.264Z,62.97
2023-05-13T22:05:27.758Z,76.68
2023-05-13T22:07:55.963Z,62.40
2023-05-13T22:10:24.588Z,73.22
2023-05-13T22:12:53.185Z,79.30
2023-05-13T22:15:21.583Z,84.50
2023-05-13T22:17:50.873Z,71.90
2023-05-13T22:20:19.339Z,79.47
2023-05-13T22:22:47.608Z,78.78
2023-05-13T22:25:16.123Z,101.68
2023-05-13T22:27:44.221Z,86.80
2023-05-13T22:30:13.186Z,98.28
2023-05-13T22:32:41.617Z,90.95
2023-05-13T22:35:10.530Z,82.68
2023-05-13T22:37:38.679Z,89.53
2023-05-13T22:40:07.930Z,67.72
2023-05-13T22:42:36.245Z,58.88
2023-05-13T22:45:04.767Z,58.33
2023-05-13T22:47:32.982Z,66.10
2023-05-13T22:50:01.442Z,81.80
2023-05-13T22:52:29.660Z,73.03
2023-05-13T22:54:58.945Z,66.13
2023-05-13T22:57:27.748Z,88.13
2023-05-13T22:59:56.130Z,93.78
2023-05-13T23:02:24.917Z,96.07
2023-05-13T23:04:54.018Z,98.53
2023-05-13T23:07:22.247Z,109.50
2023-05-13T23:09:50.593Z,117.32
2023-05-13T23:12:18.696Z,112.68
2023-05-13T23:14:47.028Z,106.07
2023-05-13T23:17:15.265Z,134.50
2023-05-13T23:19:43.705Z,121.22
2023-05-13T23:22:11.808Z,143.38
2023-05-13T23:24:40.086Z,163.57
2023-05-13T23:27:08.287Z,207.05
2023-05-13T23:29:37.054Z,175.13
2023-05-13T23:32:06.987Z,165.20
2023-05-13T23:34:35.502Z,143.82
2023-05-13T23:37:03.758Z,101.78
2023-05-13T23:39:32.081Z,117.75
2023-05-13T23:42:00.443Z,82.05
2023-05-13T23:44:28.661Z,89.75
2023-05-13T23:46:57.102Z,96.07
2023-05-13T23:49:28.264Z,85.68
2023-05-13T23:51:56.593Z,83.97
2023-05-13T23:54:24.760Z,75.45
2023-05-13T23:56:53.152Z,85.40
2023-05-13T23:59:21.177Z,68.47
